createdAt,value
2022-11-01T00:01:45.216Z,13.77
2022-11-01T00:04:13.211Z,13.74
2022-11-01T00:06:41.290Z,13.76
2022-11-01T00:09:11.023Z,13.73
2022-11-01T00:11:39.161Z,13.66
2022-11-01T00:14:07.352Z,13.63
2022-11-01T00:16:35.396Z,13.52
2022-11-01T00:19:03.432Z,13.55
2022-11-01T00:21:31.455Z,13.58
2022-11-01T00:23:59.536Z,13.58
2022-11-01T00:26:28.945Z,13.61
2022-11-01T00:28:57.343Z,13.47
2022-11-01T00:31:25.821Z,13.38
2022-11-01T00:33:53.965Z,13.35
2022-11-01T00:36:21.912Z,13.35
2022-11-01T00:38:51.329Z,13.53
2022-11-01T00:41:20.712Z,13.51
2022-11-01T00:43:50.354Z,13.42
2022-11-01T00:46:18.679Z,13.28
2022-11-01T00:48:46.687Z,13.28
2022-11-01T00:51:14.607Z,13.28
2022-11-01T00:53:42.575Z,13.23
2022-11-01T00:56:10.555Z,13.18
2022-11-01T00:58:38.485Z,13.32
2022-11-01T01:01:07.965Z,13.31
2022-11-01T01:03:36.120Z,13.29
2022-11-01T01:06:04.198Z,13.19
2022-11-01T01:08:32.193Z,13.23
2022-11-01T01:11:00.133Z,13.28
2022-11-01T01:13:28.229Z,13.22
2022-11-01T01:15:57.318Z,13.31
2022-11-01T01:18:26.651Z,13.22
2022-11-01T01:21:01.503Z,13.38
2022-11-01T01:23:29.466Z,13.25
2022-11-01T01:25:57.456Z,13.27
2022-11-01T01:28:25.371Z,13.42
2022-11-01T01:30:53.331Z,13.43
2022-11-01T01:33:21.204Z,13.40
2022-11-01T01:35:50.526Z,13.33
2022-11-01T01:38:18.455Z,13.27
2022-11-01T01:40:46.487Z,13.20
2022-11-01T01:43:14.412Z,13.30
2022-11-01T01:45:43.649Z,13.35
2022-11-01T01:48:17.099Z,13.43
2022-11-01T01:50:49.778Z,13.41
2022-11-01T01:53:24.877Z,13.44
2022-11-01T01:55:58.352Z,13.40
2022-11-01T01:58:30.540Z,13.37
2022-11-01T02:00:58.980Z,13.45
2022-11-01T02:03:31.064Z,13.48
2022-11-01T02:06:03.559Z,13.43
2022-11-01T02:08:33.581Z,13.37
2022-11-01T02:11:05.048Z,13.48
2022-11-01T02:13:33.494Z,13.43
2022-11-01T02:16:19.096Z,13.51
2022-11-01T02:18:50.116Z,13.52
2022-11-01T02:21:47.366Z,13.50
2022-11-01T02:24:46.738Z,13.45
2022-11-01T02:27:21.657Z,13.54
2022-11-01T02:30:15.738Z,13.49
2022-11-01T02:33:05.312Z,13.46
2022-11-01T02:35:44.346Z,13.53
2022-11-01T02:38:24.781Z,13.52
2022-11-01T02:41:03.483Z,13.59
2022-11-01T02:43:44.547Z,13.52
2022-11-01T02:46:30.414Z,13.55
2022-11-01T02:49:00.450Z,13.57
2022-11-01T02:51:29.493Z,13.65
2022-11-01T02:54:01.375Z,13.61
2022-11-01T02:56:30.184Z,13.70
2022-11-01T02:58:58.917Z,13.65
2022-11-01T03:01:29.695Z,13.72
2022-11-01T03:04:01.571Z,13.68
2022-11-01T03:06:35.497Z,13.67
2022-11-01T03:09:07.731Z,13.70
2022-11-01T03:11:44.064Z,13.65
2022-11-01T03:14:21.696Z,13.73
2022-11-01T03:16:56.050Z,13.80
2022-11-01T03:19:37.069Z,13.74
2022-11-01T03:22:10.973Z,13.81
2022-11-01T03:24:45.336Z,13.85
2022-11-01T03:27:18.497Z,13.93
2022-11-01T03:29:56.318Z,13.89
2022-11-01T03:32:27.811Z,13.95
2022-11-01T03:35:01.360Z,14.06
2022-11-01T03:37:32.044Z,13.99
2022-11-01T03:40:04.138Z,13.99
2022-11-01T03:42:33.489Z,14.12
2022-11-01T03:45:10.411Z,14.09
2022-11-01T03:47:39.010Z,14.17
2022-11-01T03:50:16.409Z,14.14
2022-11-01T03:52:44.561Z,14.25
2022-11-01T03:55:21.726Z,14.19
2022-11-01T03:57:50.585Z,14.22
2022-11-01T04:00:20.975Z,14.37
2022-11-01T04:02:49.550Z,14.39
2022-11-01T04:05:19.701Z,14.45
2022-11-01T04:07:48.148Z,14.43
2022-11-01T04:10:16.706Z,14.51
2022-11-01T04:12:46.261Z,14.58
2022-11-01T04:15:31.984Z,14.61
2022-11-01T04:18:25.331Z,14.69
2022-11-01T04:20:54.999Z,14.48
2022-11-01T04:23:22.900Z,14.77
2022-11-01T04:25:53.867Z,14.69
2022-11-01T04:28:21.931Z,14.83
2022-11-01T04:30:49.858Z,14.94
2022-11-01T04:33:17.751Z,14.91
2022-11-01T04:35:45.896Z,14.88
2022-11-01T04:38:15.934Z,14.96
2022-11-01T04:40:44.728Z,14.97
2022-11-01T04:43:13.308Z,15.02
2022-11-01T04:45:41.267Z,15.04
2022-11-01T04:48:13.467Z,15.10
2022-11-01T04:50:42.423Z,15.10
2022-11-01T04:53:10.996Z,15.16
2022-11-01T04:55:40.592Z,15.20
2022-11-01T04:58:10.680Z,15.25
2022-11-01T05:00:38.888Z,15.24
2022-11-01T05:03:08.465Z,15.25
2022-11-01T05:05:36.920Z,15.21
2022-11-01T05:08:06.391Z,15.23
2022-11-01T05:10:38.729Z,15.19
2022-11-01T05:13:08.707Z,15.29
2022-11-01T05:15:40.165Z,15.35
2022-11-01T05:18:11.921Z,15.44
2022-11-01T05:20:39.838Z,15.52
2022-11-01T05:23:07.734Z,15.45
2022-11-01T05:25:38.093Z,15.52
2022-11-01T05:28:10.339Z,15.51
2022-11-01T05:30:39.078Z,15.53
2022-11-01T05:33:08.428Z,15.56
2022-11-01T05:35:37.144Z,15.65
2022-11-01T05:38:05.929Z,15.74
2022-11-01T05:40:34.393Z,15.82
2022-11-01T05:43:02.807Z,15.84
2022-11-01T05:45:32.501Z,16.01
2022-11-01T05:48:03.395Z,16.17
2022-11-01T05:50:31.381Z,16.24
2022-11-01T05:53:08.901Z,16.25
2022-11-01T05:55:36.933Z,16.25
2022-11-01T05:58:05.073Z,16.43
2022-11-01T06:00:35.486Z,16.51
2022-11-01T06:03:03.706Z,16.53
2022-11-01T06:05:32.560Z,16.65
2022-11-01T06:08:02.467Z,16.66
2022-11-01T06:10:30.428Z,16.77
2022-11-01T06:12:58.441Z,16.90
2022-11-01T06:15:26.497Z,16.89
2022-11-01T06:17:58.387Z,16.99
2022-11-01T06:20:26.884Z,17.08
2022-11-01T06:22:54.764Z,17.09
2022-11-01T06:25:23.453Z,17.01
2022-11-01T06:27:51.331Z,17.24
2022-11-01T06:30:19.187Z,17.26
2022-11-01T06:32:47.396Z,17.25
2022-11-01T06:35:16.938Z,17.28
2022-11-01T06:37:44.861Z,17.41
2022-11-01T06:40:14.002Z,17.47
2022-11-01T06:42:46.477Z,17.51
2022-11-01T06:45:15.977Z,17.53
2022-11-01T06:47:47.784Z,17.53
2022-11-01T06:50:17.123Z,17.58
2022-11-01T06:52:45.019Z,17.53
2022-11-01T06:55:12.942Z,17.62
2022-11-01T06:57:40.956Z,17.63
2022-11-01T07:00:10.256Z,17.58
2022-11-01T07:02:38.328Z,17.59
2022-11-01T07:05:07.255Z,17.61
2022-11-01T07:07:36.452Z,17.46
2022-11-01T07:10:04.796Z,17.66
2022-11-01T07:12:32.864Z,17.67
2022-11-01T07:15:00.796Z,17.72
2022-11-01T07:17:28.666Z,17.70
2022-11-01T07:19:56.607Z,17.74
2022-11-01T07:22:24.516Z,17.72
2022-11-01T07:24:53.859Z,17.72
2022-11-01T07:27:22.204Z,17.73
2022-11-01T07:29:50.101Z,17.73
2022-11-01T07:32:18.014Z,17.90
2022-11-01T07:34:45.949Z,17.95
2022-11-01T07:37:13.893Z,17.89
2022-11-01T07:39:41.856Z,17.94
2022-11-01T07:42:11.206Z,17.90
2022-11-01T07:44:39.162Z,17.85
2022-11-01T07:47:07.077Z,17.78
2022-11-01T07:49:34.993Z,17.82
2022-11-01T07:52:04.193Z,17.84
2022-11-01T07:54:32.063Z,17.84
2022-11-01T07:57:00.031Z,17.78
2022-11-01T07:59:29.293Z,17.77
2022-11-01T08:01:57.275Z,17.91
2022-11-01T08:04:25.301Z,18.08
2022-11-01T08:06:53.260Z,18.02
2022-11-01T08:09:22.680Z,18.12
2022-11-01T08:11:50.692Z,17.97
2022-11-01T08:14:18.617Z,17.79
2022-11-01T08:16:55.586Z,17.95
2022-11-01T08:19:23.601Z,17.93
2022-11-01T08:21:51.578Z,17.94
2022-11-01T08:24:19.653Z,18.07
2022-11-01T08:26:47.560Z,18.15
2022-11-01T08:29:15.523Z,18.23
2022-11-01T08:31:43.562Z,18.17
2022-11-01T08:34:15.996Z,18.45
2022-11-01T08:36:44.710Z,18.36
2022-11-01T08:39:12.900Z,18.55
2022-11-01T08:41:40.807Z,18.37
2022-11-01T08:44:08.982Z,18.36
2022-11-01T08:46:36.910Z,18.50
2022-11-01T08:49:04.886Z,18.68
2022-11-01T08:51:34.461Z,18.73
2022-11-01T08:54:03.015Z,18.82
2022-11-01T08:56:30.891Z,18.83
2022-11-01T08:58:58.905Z,18.86
2022-11-01T09:01:27.684Z,19.03
2022-11-01T09:03:57.966Z,19.08
2022-11-01T09:06:28.980Z,19.20
2022-11-01T09:09:00.969Z,19.38
2022-11-01T09:11:30.472Z,19.47
2022-11-01T09:13:58.802Z,19.35
2022-11-01T09:16:26.785Z,19.18
2022-11-01T09:18:54.766Z,19.13
2022-11-01T09:21:25.631Z,19.29
2022-11-01T09:23:55.616Z,19.21
2022-11-01T09:26:27.016Z,19.20
2022-11-01T09:29:01.361Z,19.28
2022-11-01T09:31:29.537Z,19.15
2022-11-01T09:33:58.445Z,19.13
2022-11-01T09:36:27.783Z,19.33
2022-11-01T09:38:56.118Z,19.19
2022-11-01T09:41:36.464Z,19.24
2022-11-01T09:44:07.167Z,19.29
2022-11-01T09:46:44.859Z,19.24
2022-11-01T09:49:19.472Z,19.34
2022-11-01T09:51:47.581Z,19.45
2022-11-01T09:54:15.982Z,19.31
2022-11-01T09:56:55.804Z,19.17
2022-11-01T09:59:31.580Z,19.29
2022-11-01T10:02:17.197Z,19.44
2022-11-01T10:05:01.534Z,19.49
2022-11-01T10:07:37.603Z,19.52
2022-11-01T10:10:18.721Z,19.62
2022-11-01T10:13:02.802Z,20.12
2022-11-01T10:15:43.499Z,21.29
2022-11-01T10:18:25.646Z,22.49
2022-11-01T10:20:54.199Z,21.31
2022-11-01T10:23:32.939Z,20.60
2022-11-01T10:26:00.869Z,20.52
2022-11-01T10:28:40.679Z,19.79
2022-11-01T10:31:15.825Z,21.45
2022-11-01T10:33:49.222Z,25.14
2022-11-01T10:36:20.441Z,24.47
2022-11-01T10:39:36.998Z,26.75
2022-11-01T10:41:43.987Z,28.23
2022-11-01T10:44:17.586Z,30.74
2022-11-01T10:46:49.245Z,28.58
2022-11-01T10:49:24.596Z,28.35
2022-11-01T10:51:57.735Z,29.76
2022-11-01T10:54:31.147Z,28.71
2022-11-01T10:57:02.419Z,30.98
2022-11-01T10:59:37.043Z,28.40
2022-11-01T11:02:13.563Z,28.89
2022-11-01T11:04:41.647Z,29.58
2022-11-01T11:07:13.933Z,29.58
2022-11-01T11:09:41.936Z,28.34
2022-11-01T11:12:13.244Z,27.26
2022-11-01T11:14:43.613Z,25.33
2022-11-01T11:17:18.952Z,24.04
2022-11-01T11:19:48.489Z,24.40
2022-11-01T11:22:16.588Z,24.59
2022-11-01T11:24:46.170Z,25.03
2022-11-01T11:27:22.223Z,24.21
2022-11-01T11:29:54.280Z,23.14
2022-11-01T11:32:24.996Z,22.69
2022-11-01T11:34:57.031Z,21.85
2022-11-01T11:37:26.999Z,22.20
2022-11-01T11:40:26.631Z,22.29
2022-11-01T11:42:56.849Z,21.82
2022-11-01T11:45:29.466Z,21.59
2022-11-01T11:48:00.239Z,21.44
2022-11-01T11:50:34.009Z,22.29
2022-11-01T11:53:07.707Z,22.45
2022-11-01T11:55:41.926Z,23.11
2022-11-01T11:58:23.916Z,22.36
2022-11-01T12:00:55.957Z,22.35
2022-11-01T12:03:24.114Z,22.51
2022-11-01T12:05:59.783Z,22.48
2022-11-01T12:08:38.257Z,22.08
2022-11-01T12:11:06.333Z,21.78
2022-11-01T12:13:37.532Z,23.20
2022-11-01T12:16:25.406Z,22.45
2022-11-01T12:18:56.456Z,22.20
2022-11-01T12:21:28.442Z,22.37
2022-11-01T12:24:01.350Z,22.86
2022-11-01T12:26:34.869Z,24.37
2022-11-01T12:29:14.338Z,25.05
2022-11-01T12:31:45.949Z,24.74
2022-11-01T12:34:20.270Z,22.98
2022-11-01T12:36:55.223Z,22.59
2022-11-01T12:39:40.295Z,22.29
2022-11-01T12:42:13.978Z,21.06
2022-11-01T12:44:46.994Z,20.98
2022-11-01T12:47:19.176Z,20.28
2022-11-01T12:49:54.005Z,20.59
2022-11-01T12:52:29.202Z,20.44
2022-11-01T12:55:05.125Z,20.74
2022-11-01T12:57:34.794Z,20.91
2022-11-01T13:00:05.237Z,20.86
2022-11-01T13:02:57.777Z,21.07
2022-11-01T13:05:33.841Z,21.14
2022-11-01T13:08:11.031Z,20.69
2022-11-01T13:10:44.364Z,20.39
2022-11-01T13:13:22.567Z,20.00
2022-11-01T13:16:05.365Z,20.01
2022-11-01T13:18:43.725Z,19.70
2022-11-01T13:21:18.176Z,19.80
2022-11-01T13:23:50.208Z,19.93
2022-11-01T13:26:24.580Z,19.97
2022-11-01T13:29:07.839Z,19.38
2022-11-01T13:31:48.299Z,19.59
2022-11-01T13:34:32.879Z,19.31
2022-11-01T13:37:11.146Z,19.23
2022-11-01T13:39:48.555Z,19.36
2022-11-01T13:42:21.291Z,19.24
2022-11-01T13:44:53.975Z,19.28
2022-11-01T13:47:37.839Z,19.16
2022-11-01T13:50:30.233Z,19.15
2022-11-01T13:53:05.624Z,19.20
2022-11-01T13:55:39.046Z,19.28
2022-11-01T13:58:07.853Z,19.27
2022-11-01T14:00:38.467Z,19.46
2022-11-01T14:03:22.235Z,19.46
2022-11-01T14:08:46.958Z,19.21
2022-11-01T14:11:45.227Z,19.29
2022-11-01T14:14:46.415Z,19.12
2022-11-01T14:17:40.278Z,19.12
2022-11-01T14:20:41.499Z,18.84
2022-11-01T14:23:52.508Z,18.85
2022-11-01T14:26:59.736Z,18.88
2022-11-01T14:29:30.177Z,18.77
2022-11-01T14:31:59.239Z,18.86
2022-11-01T14:34:32.715Z,18.88
2022-11-01T14:37:06.721Z,18.83
2022-11-01T14:39:40.346Z,18.60
2022-11-01T14:42:13.652Z,18.65
2022-11-01T14:44:50.441Z,18.65
2022-11-01T14:47:27.156Z,18.57
2022-11-01T14:49:58.473Z,18.57
2022-11-01T14:52:34.443Z,18.35
2022-11-01T14:55:13.589Z,18.48
2022-11-01T14:57:42.149Z,18.37
2022-11-01T15:00:26.200Z,18.36
2022-11-01T15:02:54.228Z,18.24
2022-11-01T15:05:22.404Z,18.19
2022-11-01T15:07:52.551Z,18.03
2022-11-01T15:10:21.053Z,18.10
2022-11-01T15:12:52.719Z,18.09
2022-11-01T15:15:24.283Z,17.99
2022-11-01T15:17:56.127Z,18.03
2022-11-01T15:20:27.391Z,18.06
2022-11-01T15:22:57.724Z,17.88
2022-11-01T15:25:27.572Z,17.85
2022-11-01T15:27:57.136Z,17.82
2022-11-01T15:30:28.880Z,17.72
2022-11-01T15:33:15.393Z,17.74
2022-11-01T15:35:43.554Z,17.69
2022-11-01T15:38:20.777Z,17.68
2022-11-01T15:40:50.260Z,17.69
2022-11-01T15:43:19.919Z,17.40
2022-11-01T15:45:54.067Z,17.23
2022-11-01T15:48:25.791Z,17.06
2022-11-01T15:50:57.750Z,16.93
2022-11-01T15:53:30.375Z,16.77
2022-11-01T15:56:02.050Z,16.65
2022-11-01T15:58:36.120Z,16.45
2022-11-01T16:01:13.210Z,16.52
2022-11-01T16:03:45.338Z,16.42
2022-11-01T16:06:18.556Z,16.39
2022-11-01T16:08:49.228Z,16.32
2022-11-01T16:11:20.818Z,16.25
2022-11-01T16:13:50.794Z,16.11
2022-11-01T16:16:20.761Z,16.06
2022-11-01T16:18:48.847Z,15.93
2022-11-01T16:21:28.948Z,15.78
2022-11-01T16:24:05.321Z,15.69
2022-11-01T16:26:54.586Z,15.54
2022-11-01T16:29:50.206Z,15.42
2022-11-01T16:32:23.588Z,15.13
2022-11-01T16:34:52.065Z,15.30
2022-11-01T16:37:22.568Z,15.25
2022-11-01T16:39:50.769Z,15.26
2022-11-01T16:42:20.117Z,15.25
2022-11-01T16:44:51.432Z,15.22
2022-11-01T16:47:20.841Z,15.14
2022-11-01T16:49:52.243Z,15.10
2022-11-01T16:52:20.344Z,14.97
2022-11-01T16:54:50.883Z,14.88
2022-11-01T16:57:25.072Z,14.86
2022-11-01T16:59:54.466Z,14.77
2022-11-01T17:02:27.032Z,14.69
2022-11-01T17:04:58.611Z,14.58
2022-11-01T17:07:27.551Z,14.47
2022-11-01T17:09:55.735Z,14.31
2022-11-01T17:12:23.661Z,14.24
2022-11-01T17:14:52.386Z,14.11
2022-11-01T17:17:24.539Z,14.05
2022-11-01T17:19:59.427Z,14.00
2022-11-01T17:22:33.787Z,14.03
2022-11-01T17:25:01.969Z,14.02
2022-11-01T17:27:30.411Z,13.98
2022-11-01T17:29:58.871Z,13.95
2022-11-01T17:32:26.932Z,13.88
2022-11-01T17:34:56.207Z,14.09
2022-11-01T17:37:26.827Z,14.15
2022-11-01T17:39:54.794Z,14.13
2022-11-01T17:42:22.764Z,14.09
2022-11-01T17:44:50.833Z,14.07
2022-11-01T17:47:19.040Z,13.77
2022-11-01T17:49:46.891Z,14.01
2022-11-01T17:52:16.140Z,14.02
2022-11-01T17:54:44.112Z,13.97
2022-11-01T17:57:12.744Z,13.86
2022-11-01T17:59:40.825Z,13.81
2022-11-01T18:02:10.319Z,13.82
2022-11-01T18:04:38.436Z,13.93
2022-11-01T18:07:09.683Z,13.91
2022-11-01T18:09:40.522Z,13.98
2022-11-01T18:12:13.269Z,14.00
2022-11-01T18:17:32.731Z,14.29
2022-11-01T18:20:08.454Z,14.37
2022-11-01T18:22:43.708Z,14.58
2022-11-01T18:25:25.325Z,14.64
2022-11-01T18:27:56.213Z,14.64
2022-11-01T18:30:24.532Z,14.60
2022-11-01T18:32:58.914Z,14.54
2022-11-01T18:35:32.431Z,14.50
2022-11-01T18:38:14.670Z,14.51
2022-11-01T18:40:55.529Z,14.46
2022-11-01T18:43:23.845Z,14.36
2022-11-01T18:46:22.899Z,14.29
2022-11-01T18:48:39.653Z,14.07
2022-11-01T18:51:13.832Z,14.00
2022-11-01T18:53:41.798Z,13.92
2022-11-01T18:56:21.287Z,13.99
2022-11-01T18:58:50.246Z,14.02
2022-11-01T19:01:20.020Z,14.05
2022-11-01T19:03:55.778Z,14.08
2022-11-01T19:06:23.933Z,14.03
2022-11-01T19:08:55.223Z,13.91
2022-11-01T19:11:26.317Z,13.93
2022-11-01T19:13:55.716Z,13.92
2022-11-01T19:16:23.664Z,13.92
2022-11-01T19:18:52.369Z,13.89
2022-11-01T19:21:22.729Z,13.84
2022-11-01T19:23:53.951Z,13.83
2022-11-01T19:26:26.687Z,13.85
2022-11-01T19:28:54.672Z,13.88
2022-11-01T19:31:27.279Z,13.95
2022-11-01T19:33:58.378Z,14.01
2022-11-01T19:36:33.760Z,14.19
2022-11-01T19:39:01.838Z,14.32
2022-11-01T19:41:35.478Z,14.41
2022-11-01T19:44:12.453Z,14.37
2022-11-01T19:46:40.342Z,14.23
2022-11-01T19:49:20.566Z,14.35
2022-11-01T19:51:55.175Z,14.49
2022-11-01T19:54:23.118Z,14.46
2022-11-01T19:56:52.454Z,14.36
2022-11-01T19:59:21.117Z,14.43
2022-11-01T20:01:49.461Z,14.44
2022-11-01T20:04:26.962Z,14.44
2022-11-01T20:06:59.638Z,14.43
2022-11-01T20:09:29.987Z,14.51
2022-11-01T20:11:59.279Z,14.59
2022-11-01T20:14:27.524Z,14.98
2022-11-01T20:16:55.498Z,14.94
2022-11-01T20:19:23.562Z,14.97
2022-11-01T20:21:51.564Z,14.95
2022-11-01T20:24:19.787Z,14.98
2022-11-01T20:26:47.975Z,14.90
2022-11-01T20:29:17.527Z,14.84
2022-11-01T20:31:45.681Z,14.71
2022-11-01T20:34:13.693Z,14.84
2022-11-01T20:36:42.201Z,14.67
2022-11-01T20:39:13.128Z,14.82
2022-11-01T20:41:43.775Z,14.80
2022-11-01T20:44:11.800Z,14.56
2022-11-01T20:46:41.303Z,14.59
2022-11-01T20:49:09.312Z,14.56
2022-11-01T20:51:37.240Z,14.46
2022-11-01T20:54:05.330Z,14.43
2022-11-01T20:56:33.379Z,14.39
2022-11-01T21:01:34.458Z,14.51
2022-11-01T21:04:03.927Z,14.59
2022-11-01T21:06:33.478Z,14.60
2022-11-01T21:09:03.721Z,14.50
2022-11-01T21:11:43.725Z,14.73
2022-11-01T21:14:16.554Z,14.67
2022-11-01T21:16:44.558Z,14.63
2022-11-01T21:19:20.695Z,14.53
2022-11-01T21:21:52.515Z,14.60
2022-11-01T21:24:32.097Z,14.60
2022-11-01T21:27:06.340Z,14.64
2022-11-01T21:29:35.200Z,14.53
2022-11-01T21:32:18.177Z,14.53
2022-11-01T21:34:48.163Z,14.48
2022-11-01T21:37:16.670Z,14.49
2022-11-01T21:39:44.665Z,14.42
2022-11-01T21:42:27.991Z,14.28
2022-11-01T21:44:57.507Z,14.12
2022-11-01T21:47:26.820Z,14.17
2022-11-01T21:49:56.523Z,14.12
2022-11-01T21:52:24.944Z,14.08
2022-11-01T21:54:53.674Z,13.93
2022-11-01T21:57:21.568Z,14.12
2022-11-01T21:59:49.603Z,14.15
2022-11-01T22:02:17.697Z,14.11
2022-11-01T22:04:46.169Z,13.99
2022-11-01T22:07:15.699Z,14.04
2022-11-01T22:09:43.633Z,13.96
2022-11-01T22:12:11.626Z,13.79
2022-11-01T22:14:39.577Z,13.89
2022-11-01T22:17:07.548Z,13.89
2022-11-01T22:19:35.483Z,13.99
2022-11-01T22:22:03.428Z,13.99
2022-11-01T22:24:32.732Z,14.04
2022-11-01T22:27:00.638Z,14.02
2022-11-01T22:29:28.694Z,14.04
2022-11-01T22:31:56.711Z,13.98
2022-11-01T22:34:24.631Z,14.02
2022-11-01T22:36:52.511Z,14.09
2022-11-01T22:39:23.479Z,13.93
2022-11-01T22:41:53.761Z,13.98
2022-11-01T22:44:27.051Z,13.92
2022-11-01T22:46:58.955Z,14.11
2022-11-01T22:49:30.027Z,14.10
2022-11-01T22:52:01.186Z,14.04
2022-11-01T22:54:35.269Z,14.05
2022-11-01T22:57:15.318Z,14.02
2022-11-01T22:59:46.723Z,14.00
2022-11-01T23:02:27.909Z,13.93
2022-11-01T23:05:16.837Z,13.88
2022-11-01T23:07:53.219Z,13.77
2022-11-01T23:10:27.415Z,13.62
2022-11-01T23:13:32.243Z,13.55
2022-11-01T23:16:02.070Z,13.54
2022-11-01T23:18:32.251Z,13.36
2022-11-01T23:21:02.804Z,13.42
2022-11-01T23:23:30.723Z,13.36
2022-11-01T23:26:02.062Z,13.39
2022-11-01T23:28:34.919Z,13.38
2022-11-01T23:31:04.539Z,13.44
2022-11-01T23:33:37.086Z,13.51
2022-11-01T23:36:05.822Z,13.45
2022-11-01T23:38:36.884Z,13.39
2022-11-01T23:41:05.171Z,13.53
2022-11-01T23:43:38.400Z,13.53
2022-11-01T23:46:06.823Z,13.60
2022-11-01T23:48:41.473Z,13.53
2022-11-01T23:51:16.142Z,13.60
2022-11-01T23:53:45.661Z,13.48
2022-11-01T23:56:17.460Z,13.43
2022-11-01T23:58:51.912Z,13.43
